sensor_id;sensor_type;location;lat;lon;timestamp;temperature;humidity
31597;DHT22;18201;50.978;7.034;2022-07-17T00:00:27;15.30;99.90
31597;DHT22;18201;50.978;7.034;2022-07-17T00:01:29;15.30;99.90
31597;DHT22;18201;50.978;7.034;2022-07-17T00:02:30;15.30;99.90
31597;DHT22;18201;50.978;7.034;2022-07-17T00:03:32;15.30;99.90
31597;DHT22;18201;50.978;7.034;2022-07-17T00:04:34;15.30;99.90
31597;DHT22;18201;50.978;7.034;2022-07-17T00:05:36;15.30;99.90
31597;DHT22;18201;50.978;7.034;2022-07-17T00:06:37;15.20;99.90
31597;DHT22;18201;50.978;7.034;2022-07-17T00:07:39;15.20;99.90
31597;DHT22;18201;50.978;7.034;2022-07-17T00:08:40;15.20;99.90
31597;DHT22;18201;50.978;7.034;2022-07-17T00:09:42;15.20;99.90
31597;DHT22;18201;50.978;7.034;2022-07-17T00:10:44;15.20;99.90
31597;DHT22;18201;50.978;7.034;2022-07-17T00:11:45;15.20;99.90
31597;DHT22;18201;50.978;7.034;2022-07-17T00:12:47;15.20;99.90
31597;DHT22;18201;50.978;7.034;2022-07-17T00:13:47;15.20;99.90
31597;DHT22;18201;50.978;7.034;2022-07-17T00:14:50;15.20;99.90
31597;DHT22;18201;50.978;7.034;2022-07-17T00:15:51;15.10;99.90
31597;DHT22;18201;50.978;7.034;2022-07-17T00:16:53;15.10;99.90
31597;DHT22;18201;50.978;7.034;2022-07-17T00:17:54;15.10;99.90
31597;DHT22;18201;50.978;7.034;2022-07-17T00:18:55;15.10;99.90
31597;DHT22;18201;50.978;7.034;2022-07-17T00:19:58;15.00;99.90
31597;DHT22;18201;50.978;7.034;2022-07-17T00:21:00;15.00;99.90
31597;DHT22;18201;50.978;7.034;2022-07-17T00:22:00;15.00;99.90
31597;DHT22;18201;50.978;7.034;2022-07-17T00:23:02;15.00;99.90
31597;DHT22;18201;50.978;7.034;2022-07-17T00:24:04;14.90;99.90
31597;DHT22;18201;50.978;7.034;2022-07-17T00:25:07;15.00;99.90
31597;DHT22;18201;50.978;7.034;2022-07-17T00:26:08;15.00;99.90
31597;DHT22;18201;50.978;7.034;2022-07-17T00:27:10;14.90;99.90
31597;DHT22;18201;50.978;7.034;2022-07-17T00:28:11;14.90;99.90
31597;DHT22;18201;50.978;7.034;2022-07-17T00:29:13;14.90;99.90
31597;DHT22;18201;50.978;7.034;2022-07-17T00:30:14;14.80;99.90
31597;DHT22;18201;50.978;7.034;2022-07-17T00:31:17;14.80;99.90
31597;DHT22;18201;50.978;7.034;2022-07-17T00:32:17;14.80;99.90
31597;DHT22;18201;50.978;7.034;2022-07-17T00:33:19;14.80;99.90
31597;DHT22;18201;50.978;7.034;2022-07-17T00:34:20;14.70;99.90
31597;DHT22;18201;50.978;7.034;2022-07-17T00:35:23;14.70;99.90
31597;DHT22;18201;50.978;7.034;2022-07-17T00:36:25;14.80;99.90
31597;DHT22;18201;50.978;7.034;2022-07-17T00:37:27;14.70;99.90
31597;DHT22;18201;50.978;7.034;2022-07-17T00:38:28;14.70;99.90
31597;DHT22;18201;50.978;7.034;2022-07-17T00:39:30;14.70;99.90
31597;DHT22;18201;50.978;7.034;2022-07-17T00:40:32;14.70;99.90
31597;DHT22;18201;50.978;7.034;2022-07-17T00:41:34;14.70;99.90
31597;DHT22;18201;50.978;7.034;2022-07-17T00:42:35;14.70;99.90
31597;DHT22;18201;50.978;7.034;2022-07-17T00:43:39;14.60;99.90
31597;DHT22;18201;50.978;7.034;2022-07-17T00:44:40;14.60;99.90
31597;DHT22;18201;50.978;7.034;2022-07-17T00:45:43;14.60;99.90
31597;DHT22;18201;50.978;7.034;2022-07-17T00:46:44;14.60;99.90
31597;DHT22;18201;50.978;7.034;2022-07-17T00:47:53;14.60;99.90
31597;DHT22;18201;50.978;7.034;2022-07-17T00:48:54;14.50;99.90
31597;DHT22;18201;50.978;7.034;2022-07-17T00:49:56;14.50;99.90
31597;DHT22;18201;50.978;7.034;2022-07-17T00:50:59;14.50;99.90
31597;DHT22;18201;50.978;7.034;2022-07-17T00:52:13;14.50;99.90
31597;DHT22;18201;50.978;7.034;2022-07-17T00:53:14;14.50;99.90
31597;DHT22;18201;50.978;7.034;2022-07-17T00:54:17;14.40;99.90
31597;DHT22;18201;50.978;7.034;2022-07-17T00:55:19;14.40;99.90
31597;DHT22;18201;50.978;7.034;2022-07-17T00:56:21;14.40;99.90
31597;DHT22;18201;50.978;7.034;2022-07-17T00:57:24;14.40;99.90
31597;DHT22;18201;50.978;7.034;2022-07-17T00:58:27;14.40;99.90
31597;DHT22;18201;50.978;7.034;2022-07-17T00:59:30;14.40;99.90
31597;DHT22;18201;50.978;7.034;2022-07-17T01:00:33;14.30;99.90
31597;DHT22;18201;50.978;7.034;2022-07-17T01:01:34;14.30;99.90
31597;DHT22;18201;50.978;7.034;2022-07-17T01:02:37;14.30;99.90
31597;DHT22;18201;50.978;7.034;2022-07-17T01:03:38;14.30;99.90
31597;DHT22;18201;50.978;7.034;2022-07-17T01:04:40;14.30;99.90
31597;DHT22;18201;50.978;7.034;2022-07-17T01:05:42;14.30;99.90
31597;DHT22;18201;50.978;7.034;2022-07-17T01:06:45;14.20;99.90
31597;DHT22;18201;50.978;7.034;2022-07-17T01:07:47;14.20;99.90
31597;DHT22;18201;50.978;7.034;2022-07-17T01:08:49;14.20;99.90
31597;DHT22;18201;50.978;7.034;2022-07-17T01:09:50;14.20;99.90
31597;DHT22;18201;50.978;7.034;2022-07-17T01:10:52;14.20;99.90
31597;DHT22;18201;50.978;7.034;2022-07-17T01:11:53;14.10;99.90
31597;DHT22;18201;50.978;7.034;2022-07-17T01:12:55;14.10;99.90
31597;DHT22;18201;50.978;7.034;2022-07-17T01:13:57;14.10;99.90
31597;DHT22;18201;50.978;7.034;2022-07-17T01:14:59;14.10;99.90
31597;DHT22;18201;50.978;7.034;2022-07-17T01:16:01;14.10;99.90
31597;DHT22;18201;50.978;7.034;2022-07-17T01:17:03;14.10;99.90
31597;DHT22;18201;50.978;7.034;2022-07-17T01:18:11;14.00;99.90
31597;DHT22;18201;50.978;7.034;2022-07-17T01:19:14;14.10;99.90
31597;DHT22;18201;50.978;7.034;2022-07-17T01:20:15;14.00;99.90
31597;DHT22;18201;50.978;7.034;2022-07-17T01:21:18;14.10;99.90
31597;DHT22;18201;50.978;7.034;2022-07-17T01:22:19;14.00;99.90
31597;DHT22;18201;50.978;7.034;2022-07-17T01:23:21;14.00;99.90
31597;DHT22;18201;50.978;7.034;2022-07-17T01:24:22;14.00;99.90
31597;DHT22;18201;50.978;7.034;2022-07-17T01:25:24;14.00;99.90
31597;DHT22;18201;50.978;7.034;2022-07-17T01:26:25;14.00;99.90
31597;DHT22;18201;50.978;7.034;2022-07-17T01:27:27;14.00;99.90
31597;DHT22;18201;50.978;7.034;2022-07-17T01:28:28;14.10;99.90
31597;DHT22;18201;50.978;7.034;2022-07-17T01:29:31;14.00;99.90
31597;DHT22;18201;50.978;7.034;2022-07-17T01:30:32;14.00;99.90
31597;DHT22;18201;50.978;7.034;2022-07-17T01:31:34;14.00;99.90
31597;DHT22;18201;50.978;7.034;2022-07-17T01:32:37;14.00;99.90
31597;DHT22;18201;50.978;7.034;2022-07-17T01:33:39;14.00;99.90
31597;DHT22;18201;50.978;7.034;2022-07-17T01:34:40;14.10;99.90
31597;DHT22;18201;50.978;7.034;2022-07-17T01:35:42;14.00;99.90
31597;DHT22;18201;50.978;7.034;2022-07-17T01:36:45;13.90;99.90
31597;DHT22;18201;50.978;7.034;2022-07-17T01:37:47;13.90;99.90
31597;DHT22;18201;50.978;7.034;2022-07-17T01:38:48;13.80;99.90
31597;DHT22;18201;50.978;7.034;2022-07-17T01:39:50;13.80;99.90
31597;DHT22;18201;50.978;7.034;2022-07-17T01:40:54;13.80;99.90
31597;DHT22;18201;50.978;7.034;2022-07-17T01:41:56;13.80;99.90
31597;DHT22;18201;50.978;7.034;2022-07-17T01:42:56;13.70;99.90
31597;DHT22;18201;50.978;7.034;2022-07-17T01:43:58;13.80;99.90
31597;DHT22;18201;50.978;7.034;2022-07-17T01:44:59;13.80;99.90
31597;DHT22;18201;50.978;7.034;2022-07-17T01:46:01;13.80;99.90
31597;DHT22;18201;50.978;7.034;2022-07-17T01:47:03;13.80;99.90
31597;DHT22;18201;50.978;7.034;2022-07-17T01:48:05;13.80;99.90
31597;DHT22;18201;50.978;7.034;2022-07-17T01:49:06;13.70;99.90
31597;DHT22;18201;50.978;7.034;2022-07-17T01:50:09;13.70;99.90
31597;DHT22;18201;50.978;7.034;2022-07-17T01:51:10;13.80;99.90
31597;DHT22;18201;50.978;7.034;2022-07-17T01:52:13;13.70;99.90
31597;DHT22;18201;50.978;7.034;2022-07-17T01:53:14;13.70;99.90
31597;DHT22;18201;50.978;7.034;2022-07-17T01:54:16;13.60;99.90
31597;DHT22;18201;50.978;7.034;2022-07-17T01:55:17;13.60;99.90
31597;DHT22;18201;50.978;7.034;2022-07-17T01:56:19;13.60;99.90
31597;DHT22;18201;50.978;7.034;2022-07-17T01:57:21;13.60;99.90
31597;DHT22;18201;50.978;7.034;2022-07-17T01:58:23;13.60;99.90
31597;DHT22;18201;50.978;7.034;2022-07-17T01:59:24;13.60;99.90
31597;DHT22;18201;50.978;7.034;2022-07-17T02:00:26;13.60;99.90
31597;DHT22;18201;50.978;7.034;2022-07-17T02:01:27;13.60;99.90
31597;DHT22;18201;50.978;7.034;2022-07-17T02:02:29;13.60;99.90
31597;DHT22;18201;50.978;7.034;2022-07-17T02:03:30;13.50;99.90
31597;DHT22;18201;50.978;7.034;2022-07-17T02:04:32;13.40;99.90
31597;DHT22;18201;50.978;7.034;2022-07-17T02:05:33;13.50;99.90
31597;DHT22;18201;50.978;7.034;2022-07-17T02:06:35;13.40;99.90
31597;DHT22;18201;50.978;7.034;2022-07-17T02:07:38;13.40;99.90
31597;DHT22;18201;50.978;7.034;2022-07-17T02:08:40;13.40;99.90
31597;DHT22;18201;50.978;7.034;2022-07-17T02:09:41;13.40;99.90
31597;DHT22;18201;50.978;7.034;2022-07-17T02:10:43;13.40;99.90
31597;DHT22;18201;50.978;7.034;2022-07-17T02:11:44;13.40;99.90
31597;DHT22;18201;50.978;7.034;2022-07-17T02:12:46;13.40;99.90
31597;DHT22;18201;50.978;7.034;2022-07-17T02:13:47;13.40;99.90
31597;DHT22;18201;50.978;7.034;2022-07-17T02:14:49;13.40;99.90
31597;DHT22;18201;50.978;7.034;2022-07-17T02:15:50;13.30;99.90
31597;DHT22;18201;50.978;7.034;2022-07-17T02:16:52;13.30;99.90
31597;DHT22;18201;50.978;7.034;2022-07-17T02:17:53;13.30;99.90
31597;DHT22;18201;50.978;7.034;2022-07-17T02:18:55;13.20;99.90
31597;DHT22;18201;50.978;7.034;2022-07-17T02:19:56;13.20;99.90
31597;DHT22;18201;50.978;7.034;2022-07-17T02:20:58;13.20;99.90
31597;DHT22;18201;50.978;7.034;2022-07-17T02:21:59;13.20;99.90
31597;DHT22;18201;50.978;7.034;2022-07-17T02:23:02;13.20;99.90
31597;DHT22;18201;50.978;7.034;2022-07-17T02:24:03;13.20;99.90
31597;DHT22;18201;50.978;7.034;2022-07-17T02:25:07;13.20;99.90
31597;DHT22;18201;50.978;7.034;2022-07-17T02:26:08;13.20;99.90
31597;DHT22;18201;50.978;7.034;2022-07-17T02:27:10;13.20;99.90
31597;DHT22;18201;50.978;7.034;2022-07-17T02:28:11;13.20;99.90
31597;DHT22;18201;50.978;7.034;2022-07-17T02:29:13;13.20;99.90
31597;DHT22;18201;50.978;7.034;2022-07-17T02:30:16;13.10;99.90
31597;DHT22;18201;50.978;7.034;2022-07-17T02:31:18;13.20;99.90
31597;DHT22;18201;50.978;7.034;2022-07-17T02:32:19;13.10;99.90
31597;DHT22;18201;50.978;7.034;2022-07-17T02:33:22;13.10;99.90
31597;DHT22;18201;50.978;7.034;2022-07-17T02:34:22;13.20;99.90
31597;DHT22;18201;50.978;7.034;2022-07-17T02:35:24;13.20;99.90
31597;DHT22;18201;50.978;7.034;2022-07-17T02:36:25;13.20;99.90
31597;DHT22;18201;50.978;7.034;2022-07-17T02:37:27;13.10;99.90
31597;DHT22;18201;50.978;7.034;2022-07-17T02:38:30;13.10;99.90
31597;DHT22;18201;50.978;7.034;2022-07-17T02:39:31;13.10;99.90
31597;DHT22;18201;50.978;7.034;2022-07-17T02:40:33;13.10;99.90
31597;DHT22;18201;50.978;7.034;2022-07-17T02:41:35;13.10;99.90
31597;DHT22;18201;50.978;7.034;2022-07-17T02:42:35;13.10;99.90
31597;DHT22;18201;50.978;7.034;2022-07-17T02:43:37;13.10;99.90
31597;DHT22;18201;50.978;7.034;2022-07-17T02:44:38;13.10;99.90
31597;DHT22;18201;50.978;7.034;2022-07-17T02:45:40;13.00;99.90
31597;DHT22;18201;50.978;7.034;2022-07-17T02:46:41;13.10;99.90
31597;DHT22;18201;50.978;7.034;2022-07-17T02:47:43;13.00;99.90
31597;DHT22;18201;50.978;7.034;2022-07-17T02:48:44;13.10;99.90
31597;DHT22;18201;50.978;7.034;2022-07-17T02:49:46;13.20;99.90
31597;DHT22;18201;50.978;7.034;2022-07-17T02:50:47;13.30;99.90
31597;DHT22;18201;50.978;7.034;2022-07-17T02:51:48;13.20;99.90
31597;DHT22;18201;50.978;7.034;2022-07-17T02:52:49;13.30;99.90
31597;DHT22;18201;50.978;7.034;2022-07-17T02:53:53;13.10;99.90
31597;DHT22;18201;50.978;7.034;2022-07-17T02:54:54;13.10;99.90
31597;DHT22;18201;50.978;7.034;2022-07-17T02:55:55;13.10;99.90
31597;DHT22;18201;50.978;7.034;2022-07-17T02:56:56;13.00;99.90
31597;DHT22;18201;50.978;7.034;2022-07-17T02:57:58;13.10;99.90
31597;DHT22;18201;50.978;7.034;2022-07-17T02:58:59;13.00;99.90
31597;DHT22;18201;50.978;7.034;2022-07-17T03:00:02;13.00;99.90
31597;DHT22;18201;50.978;7.034;2022-07-17T03:01:04;13.00;99.90
31597;DHT22;18201;50.978;7.034;2022-07-17T03:02:06;13.00;99.90
31597;DHT22;18201;50.978;7.034;2022-07-17T03:03:07;13.00;99.90
31597;DHT22;18201;50.978;7.034;2022-07-17T03:04:08;13.00;99.90
31597;DHT22;18201;50.978;7.034;2022-07-17T03:05:09;12.90;99.90
31597;DHT22;18201;50.978;7.034;2022-07-17T03:06:12;12.90;99.90
31597;DHT22;18201;50.978;7.034;2022-07-17T03:07:13;12.90;99.90
31597;DHT22;18201;50.978;7.034;2022-07-17T03:08:15;12.90;99.90
31597;DHT22;18201;50.978;7.034;2022-07-17T03:09:17;12.90;99.90
31597;DHT22;18201;50.978;7.034;2022-07-17T03:10:19;12.80;99.90
31597;DHT22;18201;50.978;7.034;2022-07-17T03:11:20;12.80;99.90
31597;DHT22;18201;50.978;7.034;2022-07-17T03:12:22;12.90;99.90
31597;DHT22;18201;50.978;7.034;2022-07-17T03:13:22;12.90;99.90
31597;DHT22;18201;50.978;7.034;2022-07-17T03:14:24;12.80;99.90
31597;DHT22;18201;50.978;7.034;2022-07-17T03:15:25;12.80;99.90
31597;DHT22;18201;50.978;7.034;2022-07-17T03:16:28;12.80;99.90
31597;DHT22;18201;50.978;7.034;2022-07-17T03:17:29;12.80;99.90
31597;DHT22;18201;50.978;7.034;2022-07-17T03:18:31;12.70;99.90
31597;DHT22;18201;50.978;7.034;2022-07-17T03:19:32;12.70;99.90
31597;DHT22;18201;50.978;7.034;2022-07-17T03:20:34;12.60;99.90
31597;DHT22;18201;50.978;7.034;2022-07-17T03:21:35;12.70;99.90
31597;DHT22;18201;50.978;7.034;2022-07-17T03:22:37;12.70;99.90
31597;DHT22;18201;50.978;7.034;2022-07-17T03:23:38;12.60;99.90
31597;DHT22;18201;50.978;7.034;2022-07-17T03:24:41;12.60;99.90
31597;DHT22;18201;50.978;7.034;2022-07-17T03:25:42;12.70;99.90
31597;DHT22;18201;50.978;7.034;2022-07-17T03:26:44;12.60;99.90
31597;DHT22;18201;50.978;7.034;2022-07-17T03:27:45;12.60;99.90
31597;DHT22;18201;50.978;7.034;2022-07-17T03:28:47;12.50;99.90
31597;DHT22;18201;50.978;7.034;2022-07-17T03:29:48;12.50;99.90
31597;DHT22;18201;50.978;7.034;2022-07-17T03:30:50;12.50;99.90
31597;DHT22;18201;50.978;7.034;2022-07-17T03:31:51;12.50;99.90
31597;DHT22;18201;50.978;7.034;2022-07-17T03:32:53;12.40;99.90
31597;DHT22;18201;50.978;7.034;2022-07-17T03:33:54;12.30;99.90
31597;DHT22;18201;50.978;7.034;2022-07-17T03:34:56;12.30;99.90
31597;DHT22;18201;50.978;7.034;2022-07-17T03:35:57;12.30;99.90
31597;DHT22;18201;50.978;7.034;2022-07-17T03:36:59;12.30;99.90
31597;DHT22;18201;50.978;7.034;2022-07-17T03:38:01;12.30;99.90
31597;DHT22;18201;50.978;7.034;2022-07-17T03:39:02;12.30;99.90
31597;DHT22;18201;50.978;7.034;2022-07-17T03:40:06;12.30;99.90
31597;DHT22;18201;50.978;7.034;2022-07-17T03:41:08;12.40;99.90
31597;DHT22;18201;50.978;7.034;2022-07-17T03:42:09;12.40;99.90
31597;DHT22;18201;50.978;7.034;2022-07-17T03:43:10;12.50;99.90
31597;DHT22;18201;50.978;7.034;2022-07-17T03:44:13;12.40;99.90
31597;DHT22;18201;50.978;7.034;2022-07-17T03:45:14;12.50;99.90
31597;DHT22;18201;50.978;7.034;2022-07-17T03:46:16;12.40;99.90
31597;DHT22;18201;50.978;7.034;2022-07-17T03:47:17;12.40;99.90
31597;DHT22;18201;50.978;7.034;2022-07-17T03:48:18;12.30;99.90
31597;DHT22;18201;50.978;7.034;2022-07-17T03:49:20;12.30;99.90
31597;DHT22;18201;50.978;7.034;2022-07-17T03:50:22;12.30;99.90
31597;DHT22;18201;50.978;7.034;2022-07-17T03:51:23;12.30;99.90
31597;DHT22;18201;50.978;7.034;2022-07-17T03:52:24;12.30;99.90
31597;DHT22;18201;50.978;7.034;2022-07-17T03:53:25;12.30;99.90
31597;DHT22;18201;50.978;7.034;2022-07-17T03:54:27;12.30;99.90
31597;DHT22;18201;50.978;7.034;2022-07-17T03:55:30;12.30;99.90
31597;DHT22;18201;50.978;7.034;2022-07-17T03:56:32;12.40;99.90
31597;DHT22;18201;50.978;7.034;2022-07-17T03:57:33;12.40;99.90
31597;DHT22;18201;50.978;7.034;2022-07-17T03:58:35;12.40;99.90
31597;DHT22;18201;50.978;7.034;2022-07-17T03:59:36;12.40;99.90
31597;DHT22;18201;50.978;7.034;2022-07-17T04:00:38;12.40;99.90
31597;DHT22;18201;50.978;7.034;2022-07-17T04:01:39;12.30;99.90
31597;DHT22;18201;50.978;7.034;2022-07-17T04:02:41;12.30;99.90
31597;DHT22;18201;50.978;7.034;2022-07-17T04:03:42;12.30;99.90
31597;DHT22;18201;50.978;7.034;2022-07-17T04:04:44;12.40;99.90
31597;DHT22;18201;50.978;7.034;2022-07-17T04:05:45;12.30;99.90
31597;DHT22;18201;50.978;7.034;2022-07-17T04:06:46;12.20;99.90
31597;DHT22;18201;50.978;7.034;2022-07-17T04:07:47;12.10;99.90
31597;DHT22;18201;50.978;7.034;2022-07-17T04:08:49;12.00;99.90
31597;DHT22;18201;50.978;7.034;2022-07-17T04:09:50;12.00;99.90
31597;DHT22;18201;50.978;7.034;2022-07-17T04:10:53;11.90;99.90
31597;DHT22;18201;50.978;7.034;2022-07-17T04:11:54;11.90;99.90
31597;DHT22;18201;50.978;7.034;2022-07-17T04:12:56;11.90;99.90
31597;DHT22;18201;50.978;7.034;2022-07-17T04:13:57;11.90;99.90
31597;DHT22;18201;50.978;7.034;2022-07-17T04:14:59;11.80;99.90
31597;DHT22;18201;50.978;7.034;2022-07-17T04:16:00;11.80;99.90
31597;DHT22;18201;50.978;7.034;2022-07-17T04:17:02;11.80;99.90
31597;DHT22;18201;50.978;7.034;2022-07-17T04:18:03;11.70;99.90
31597;DHT22;18201;50.978;7.034;2022-07-17T04:19:05;11.70;99.90
31597;DHT22;18201;50.978;7.034;2022-07-17T04:20:06;11.70;99.90
31597;DHT22;18201;50.978;7.034;2022-07-17T04:21:10;11.70;99.90
31597;DHT22;18201;50.978;7.034;2022-07-17T04:22:11;11.70;99.90
31597;DHT22;18201;50.978;7.034;2022-07-17T04:23:13;11.70;99.90
31597;DHT22;18201;50.978;7.034;2022-07-17T04:24:14;11.80;99.90
31597;DHT22;18201;50.978;7.034;2022-07-17T04:25:16;11.80;99.90
31597;DHT22;18201;50.978;7.034;2022-07-17T04:26:18;11.80;99.90
31597;DHT22;18201;50.978;7.034;2022-07-17T04:27:20;11.90;99.90
31597;DHT22;18201;50.978;7.034;2022-07-17T04:28:21;11.90;99.90
31597;DHT22;18201;50.978;7.034;2022-07-17T04:29:23;11.90;99.90
31597;DHT22;18201;50.978;7.034;2022-07-17T04:30:24;11.80;99.90
31597;DHT22;18201;50.978;7.034;2022-07-17T04:31:26;11.80;99.90
31597;DHT22;18201;50.978;7.034;2022-07-17T04:32:27;11.80;99.90
31597;DHT22;18201;50.978;7.034;2022-07-17T04:33:29;11.70;99.90
31597;DHT22;18201;50.978;7.034;2022-07-17T04:34:31;11.70;99.90
31597;DHT22;18201;50.978;7.034;2022-07-17T04:35:33;11.70;99.90
31597;DHT22;18201;50.978;7.034;2022-07-17T04:36:34;11.70;99.90
31597;DHT22;18201;50.978;7.034;2022-07-17T04:37:36;11.70;99.90
31597;DHT22;18201;50.978;7.034;2022-07-17T04:38:37;11.70;99.90
31597;DHT22;18201;50.978;7.034;2022-07-17T04:39:39;11.70;99.90
31597;DHT22;18201;50.978;7.034;2022-07-17T04:40:41;11.70;99.90
31597;DHT22;18201;50.978;7.034;2022-07-17T04:41:44;11.70;99.90
31597;DHT22;18201;50.978;7.034;2022-07-17T04:42:45;11.70;99.90
31597;DHT22;18201;50.978;7.034;2022-07-17T04:43:47;11.70;99.90
31597;DHT22;18201;50.978;7.034;2022-07-17T04:44:48;11.70;99.90
31597;DHT22;18201;50.978;7.034;2022-07-17T04:45:50;11.80;99.90
31597;DHT22;18201;50.978;7.034;2022-07-17T04:46:51;11.80;99.90
31597;DHT22;18201;50.978;7.034;2022-07-17T04:47:53;11.80;99.90
31597;DHT22;18201;50.978;7.034;2022-07-17T04:48:54;11.90;99.90
31597;DHT22;18201;50.978;7.034;2022-07-17T04:49:56;11.90;99.90
31597;DHT22;18201;50.978;7.034;2022-07-17T04:50:57;11.90;99.90
31597;DHT22;18201;50.978;7.034;2022-07-17T04:51:59;11.90;99.90
31597;DHT22;18201;50.978;7.034;2022-07-17T04:53:00;12.00;99.90
31597;DHT22;18201;50.978;7.034;2022-07-17T04:54:02;12.00;99.90
31597;DHT22;18201;50.978;7.034;2022-07-17T04:55:04;12.00;99.90
31597;DHT22;18201;50.978;7.034;2022-07-17T04:56:06;12.00;99.90
31597;DHT22;18201;50.978;7.034;2022-07-17T04:57:08;12.00;99.90
31597;DHT22;18201;50.978;7.034;2022-07-17T04:58:10;12.00;99.90
31597;DHT22;18201;50.978;7.034;2022-07-17T04:59:11;12.00;99.90
31597;DHT22;18201;50.978;7.034;2022-07-17T05:00:14;12.00;99.90
31597;DHT22;18201;50.978;7.034;2022-07-17T05:01:15;12.10;99.90
31597;DHT22;18201;50.978;7.034;2022-07-17T05:02:17;12.10;99.90
31597;DHT22;18201;50.978;7.034;2022-07-17T05:03:18;12.10;99.90
31597;DHT22;18201;50.978;7.034;2022-07-17T05:04:20;12.10;99.90
31597;DHT22;18201;50.978;7.034;2022-07-17T05:05:21;12.10;99.90
31597;DHT22;18201;50.978;7.034;2022-07-17T05:06:23;12.10;99.90
31597;DHT22;18201;50.978;7.034;2022-07-17T05:07:24;12.10;99.90
31597;DHT22;18201;50.978;7.034;2022-07-17T05:08:26;12.10;99.90
31597;DHT22;18201;50.978;7.034;2022-07-17T05:09:27;12.20;99.90
31597;DHT22;18201;50.978;7.034;2022-07-17T05:10:29;12.20;99.90
31597;DHT22;18201;50.978;7.034;2022-07-17T05:11:30;12.20;99.90
31597;DHT22;18201;50.978;7.034;2022-07-17T05:12:33;12.20;99.90
31597;DHT22;18201;50.978;7.034;2022-07-17T05:13:34;12.20;99.90
31597;DHT22;18201;50.978;7.034;2022-07-17T05:14:36;12.20;99.90
31597;DHT22;18201;50.978;7.034;2022-07-17T05:15:37;12.30;99.90
31597;DHT22;18201;50.978;7.034;2022-07-17T05:16:39;12.20;99.90
31597;DHT22;18201;50.978;7.034;2022-07-17T05:17:41;12.30;99.90
31597;DHT22;18201;50.978;7.034;2022-07-17T05:18:42;12.30;99.90
31597;DHT22;18201;50.978;7.034;2022-07-17T05:19:44;12.30;99.90
31597;DHT22;18201;50.978;7.034;2022-07-17T05:20:45;12.30;99.90
31597;DHT22;18201;50.978;7.034;2022-07-17T05:21:47;12.30;99.90
31597;DHT22;18201;50.978;7.034;2022-07-17T05:22:48;12.30;99.90
31597;DHT22;18201;50.978;7.034;2022-07-17T05:23:50;12.40;99.90
31597;DHT22;18201;50.978;7.034;2022-07-17T05:24:51;12.40;99.90
31597;DHT22;18201;50.978;7.034;2022-07-17T05:25:53;12.40;99.90
31597;DHT22;18201;50.978;7.034;2022-07-17T05:26:54;12.40;99.90
31597;DHT22;18201;50.978;7.034;2022-07-17T05:27:57;12.40;99.90
31597;DHT22;18201;50.978;7.034;2022-07-17T05:28:58;12.40;99.90
31597;DHT22;18201;50.978;7.034;2022-07-17T05:30:00;12.40;99.90
31597;DHT22;18201;50.978;7.034;2022-07-17T05:31:01;12.40;99.90
31597;DHT22;18201;50.978;7.034;2022-07-17T05:32:03;12.50;99.90
31597;DHT22;18201;50.978;7.034;2022-07-17T05:33:04;12.50;99.90
31597;DHT22;18201;50.978;7.034;2022-07-17T05:34:06;12.50;99.90
31597;DHT22;18201;50.978;7.034;2022-07-17T05:35:08;12.50;99.90
31597;DHT22;18201;50.978;7.034;2022-07-17T05:36:10;12.60;99.90
31597;DHT22;18201;50.978;7.034;2022-07-17T05:37:10;12.60;99.90
31597;DHT22;18201;50.978;7.034;2022-07-17T05:38:12;12.60;99.90
31597;DHT22;18201;50.978;7.034;2022-07-17T05:39:13;12.60;99.90
31597;DHT22;18201;50.978;7.034;2022-07-17T05:40:15;12.70;99.90
31597;DHT22;18201;50.978;7.034;2022-07-17T05:41:16;12.70;99.90
31597;DHT22;18201;50.978;7.034;2022-07-17T05:42:18;12.70;99.90
31597;DHT22;18201;50.978;7.034;2022-07-17T05:43:20;12.70;99.90
31597;DHT22;18201;50.978;7.034;2022-07-17T05:44:22;12.80;99.90
31597;DHT22;18201;50.978;7.034;2022-07-17T05:45:23;12.80;99.90
31597;DHT22;18201;50.978;7.034;2022-07-17T05:46:25;12.80;99.90
31597;DHT22;18201;50.978;7.034;2022-07-17T05:47:26;12.90;99.90
31597;DHT22;18201;50.978;7.034;2022-07-17T05:48:30;12.90;99.90
31597;DHT22;18201;50.978;7.034;2022-07-17T05:49:31;12.90;99.90
31597;DHT22;18201;50.978;7.034;2022-07-17T05:50:33;13.00;99.90
31597;DHT22;18201;50.978;7.034;2022-07-17T05:51:34;13.00;99.90
31597;DHT22;18201;50.978;7.034;2022-07-17T05:52:37;13.00;99.90
31597;DHT22;18201;50.978;7.034;2022-07-17T05:53:38;13.00;99.90
31597;DHT22;18201;50.978;7.034;2022-07-17T05:54:40;13.10;99.90
31597;DHT22;18201;50.978;7.034;2022-07-17T05:55:41;13.10;99.90
31597;DHT22;18201;50.978;7.034;2022-07-17T05:56:43;13.10;99.90
31597;DHT22;18201;50.978;7.034;2022-07-17T05:57:44;13.10;99.90
31597;DHT22;18201;50.978;7.034;2022-07-17T05:58:47;13.10;99.90
31597;DHT22;18201;50.978;7.034;2022-07-17T05:59:48;13.20;99.90
31597;DHT22;18201;50.978;7.034;2022-07-17T06:00:50;13.20;99.90
31597;DHT22;18201;50.978;7.034;2022-07-17T06:01:51;13.20;99.90
31597;DHT22;18201;50.978;7.034;2022-07-17T06:02:53;13.30;99.90
31597;DHT22;18201;50.978;7.034;2022-07-17T06:03:54;13.30;99.90
31597;DHT22;18201;50.978;7.034;2022-07-17T06:04:56;13.30;99.90
31597;DHT22;18201;50.978;7.034;2022-07-17T06:05:57;13.30;99.90
31597;DHT22;18201;50.978;7.034;2022-07-17T06:06:59;13.40;99.90
31597;DHT22;18201;50.978;7.034;2022-07-17T06:08:00;13.40;99.90
31597;DHT22;18201;50.978;7.034;2022-07-17T06:09:02;13.40;99.90
31597;DHT22;18201;50.978;7.034;2022-07-17T06:10:04;13.50;99.90
31597;DHT22;18201;50.978;7.034;2022-07-17T06:11:07;13.50;99.90
31597;DHT22;18201;50.978;7.034;2022-07-17T06:12:08;13.50;99.90
31597;DHT22;18201;50.978;7.034;2022-07-17T06:13:09;13.50;99.90
31597;DHT22;18201;50.978;7.034;2022-07-17T06:14:12;13.60;99.90
31597;DHT22;18201;50.978;7.034;2022-07-17T06:15:14;13.60;99.90
31597;DHT22;18201;50.978;7.034;2022-07-17T06:16:15;13.60;99.90
31597;DHT22;18201;50.978;7.034;2022-07-17T06:17:16;13.70;99.90
31597;DHT22;18201;50.978;7.034;2022-07-17T06:18:17;13.80;99.90
31597;DHT22;18201;50.978;7.034;2022-07-17T06:19:19;13.80;99.90
31597;DHT22;18201;50.978;7.034;2022-07-17T06:20:20;13.80;99.90
31597;DHT22;18201;50.978;7.034;2022-07-17T06:21:22;13.90;99.90
31597;DHT22;18201;50.978;7.034;2022-07-17T06:22:23;13.90;99.90
31597;DHT22;18201;50.978;7.034;2022-07-17T06:23:25;13.90;99.90
31597;DHT22;18201;50.978;7.034;2022-07-17T06:24:26;14.00;99.90
31597;DHT22;18201;50.978;7.034;2022-07-17T06:25:28;14.00;99.90
31597;DHT22;18201;50.978;7.034;2022-07-17T06:26:29;14.10;99.90
31597;DHT22;18201;50.978;7.034;2022-07-17T06:27:31;14.10;99.90
31597;DHT22;18201;50.978;7.034;2022-07-17T06:28:32;14.20;99.90
31597;DHT22;18201;50.978;7.034;2022-07-17T06:29:35;14.30;99.90